sensor_id;sensor_type;location;lat;lon;timestamp;temperature;humidity
40828;DHT22;26549;50.918;5.338;2023-09-19T00:00:46;17.60;99.90
40828;DHT22;26549;50.918;5.338;2023-09-19T00:03:16;17.60;99.90
40828;DHT22;26549;50.918;5.338;2023-09-19T00:05:42;17.50;99.90
40828;DHT22;26549;50.918;5.338;2023-09-19T00:08:14;17.50;99.90
40828;DHT22;26549;50.918;5.338;2023-09-19T00:10:40;17.50;99.90
40828;DHT22;26549;50.918;5.338;2023-09-19T00:13:06;17.50;99.90
40828;DHT22;26549;50.918;5.338;2023-09-19T00:15:40;17.30;99.90
40828;DHT22;26549;50.918;5.338;2023-09-19T00:18:07;17.40;99.90
40828;DHT22;26549;50.918;5.338;2023-09-19T00:20:40;17.40;99.90
40828;DHT22;26549;50.918;5.338;2023-09-19T00:23:07;17.30;99.90
40828;DHT22;26549;50.918;5.338;2023-09-19T00:25:36;17.30;99.90
40828;DHT22;26549;50.918;5.338;2023-09-19T00:28:03;17.30;99.90
40828;DHT22;26549;50.918;5.338;2023-09-19T00:30:30;17.40;99.90
40828;DHT22;26549;50.918;5.338;2023-09-19T00:32:56;17.30;99.90
40828;DHT22;26549;50.918;5.338;2023-09-19T00:35:22;17.40;99.90
40828;DHT22;26549;50.918;5.338;2023-09-19T00:37:51;17.40;99.90
40828;DHT22;26549;50.918;5.338;2023-09-19T00:40:17;17.40;99.90
40828;DHT22;26549;50.918;5.338;2023-09-19T00:42:45;17.40;99.90
40828;DHT22;26549;50.918;5.338;2023-09-19T00:45:16;17.40;99.90
40828;DHT22;26549;50.918;5.338;2023-09-19T00:47:51;17.50;99.90
40828;DHT22;26549;50.918;5.338;2023-09-19T00:50:24;17.40;99.90
40828;DHT22;26549;50.918;5.338;2023-09-19T00:52:53;17.40;99.90
40828;DHT22;26549;50.918;5.338;2023-09-19T00:55:21;17.50;99.90
40828;DHT22;26549;50.918;5.338;2023-09-19T00:57:49;17.50;99.90
40828;DHT22;26549;50.918;5.338;2023-09-19T01:00:15;17.50;99.90
40828;DHT22;26549;50.918;5.338;2023-09-19T01:02:45;17.40;99.90
40828;DHT22;26549;50.918;5.338;2023-09-19T01:05:12;17.40;99.90
40828;DHT22;26549;50.918;5.338;2023-09-19T01:07:38;17.30;99.90
40828;DHT22;26549;50.918;5.338;2023-09-19T01:10:08;17.20;99.90
40828;DHT22;26549;50.918;5.338;2023-09-19T01:18:31;17.30;99.90
40828;DHT22;26549;50.918;5.338;2023-09-19T01:29:45;17.10;99.90
40828;DHT22;26549;50.918;5.338;2023-09-19T01:32:19;17.10;99.90
40828;DHT22;26549;50.918;5.338;2023-09-19T01:34:47;17.00;99.90
40828;DHT22;26549;50.918;5.338;2023-09-19T01:37:17;17.00;99.90
40828;DHT22;26549;50.918;5.338;2023-09-19T01:39:52;17.00;99.90
40828;DHT22;26549;50.918;5.338;2023-09-19T01:42:31;17.10;99.90
40828;DHT22;26549;50.918;5.338;2023-09-19T01:45:11;17.10;99.90
40828;DHT22;26549;50.918;5.338;2023-09-19T01:47:52;17.10;99.90
40828;DHT22;26549;50.918;5.338;2023-09-19T01:54:16;17.10;99.90
40828;DHT22;26549;50.918;5.338;2023-09-19T01:56:22;17.10;99.90
40828;DHT22;26549;50.918;5.338;2023-09-19T01:58:55;17.10;99.90
40828;DHT22;26549;50.918;5.338;2023-09-19T02:01:24;17.00;99.90
40828;DHT22;26549;50.918;5.338;2023-09-19T02:03:53;17.00;99.90
40828;DHT22;26549;50.918;5.338;2023-09-19T02:06:22;17.00;99.90
40828;DHT22;26549;50.918;5.338;2023-09-19T02:08:53;17.00;99.90
40828;DHT22;26549;50.918;5.338;2023-09-19T02:11:23;17.00;99.90
40828;DHT22;26549;50.918;5.338;2023-09-19T02:13:50;16.90;99.90
40828;DHT22;26549;50.918;5.338;2023-09-19T02:16:21;16.90;99.90
40828;DHT22;26549;50.918;5.338;2023-09-19T02:18:52;16.90;99.90
40828;DHT22;26549;50.918;5.338;2023-09-19T02:21:19;16.90;99.90
40828;DHT22;26549;50.918;5.338;2023-09-19T02:23:50;16.90;99.90
40828;DHT22;26549;50.918;5.338;2023-09-19T02:26:20;16.90;99.90
40828;DHT22;26549;50.918;5.338;2023-09-19T02:28:47;16.90;99.90
40828;DHT22;26549;50.918;5.338;2023-09-19T02:31:12;17.10;99.90
40828;DHT22;26549;50.918;5.338;2023-09-19T02:33:40;17.00;99.90
40828;DHT22;26549;50.918;5.338;2023-09-19T02:36:08;17.00;99.90
40828;DHT22;26549;50.918;5.338;2023-09-19T02:38:34;16.90;99.90
40828;DHT22;26549;50.918;5.338;2023-09-19T02:41:03;16.90;99.90
40828;DHT22;26549;50.918;5.338;2023-09-19T02:43:29;16.90;99.90
40828;DHT22;26549;50.918;5.338;2023-09-19T02:45:58;16.90;99.90
40828;DHT22;26549;50.918;5.338;2023-09-19T02:48:30;16.70;99.90
40828;DHT22;26549;50.918;5.338;2023-09-19T02:50:58;16.70;99.90
40828;DHT22;26549;50.918;5.338;2023-09-19T02:53:23;16.80;99.90
40828;DHT22;26549;50.918;5.338;2023-09-19T02:55:52;16.70;99.90
40828;DHT22;26549;50.918;5.338;2023-09-19T02:58:19;16.70;99.90
40828;DHT22;26549;50.918;5.338;2023-09-19T03:00:48;16.70;99.90
40828;DHT22;26549;50.918;5.338;2023-09-19T03:03:17;16.60;99.90
40828;DHT22;26549;50.918;5.338;2023-09-19T03:05:45;16.80;99.90
40828;DHT22;26549;50.918;5.338;2023-09-19T03:08:14;16.80;99.90
40828;DHT22;26549;50.918;5.338;2023-09-19T03:10:47;16.80;99.90
40828;DHT22;26549;50.918;5.338;2023-09-19T03:13:14;16.70;99.90
40828;DHT22;26549;50.918;5.338;2023-09-19T03:15:44;16.70;99.90
40828;DHT22;26549;50.918;5.338;2023-09-19T03:18:13;16.60;99.90
40828;DHT22;26549;50.918;5.338;2023-09-19T03:20:42;16.70;99.90
40828;DHT22;26549;50.918;5.338;2023-09-19T03:23:08;16.60;99.90
40828;DHT22;26549;50.918;5.338;2023-09-19T03:25:37;16.60;99.90
40828;DHT22;26549;50.918;5.338;2023-09-19T03:28:09;16.70;99.90
40828;DHT22;26549;50.918;5.338;2023-09-19T03:30:38;16.60;99.90
40828;DHT22;26549;50.918;5.338;2023-09-19T03:33:05;16.60;99.90
40828;DHT22;26549;50.918;5.338;2023-09-19T03:35:34;16.50;99.90
40828;DHT22;26549;50.918;5.338;2023-09-19T03:38:03;16.60;99.90
40828;DHT22;26549;50.918;5.338;2023-09-19T03:40:30;16.60;99.90
40828;DHT22;26549;50.918;5.338;2023-09-19T03:43:00;16.60;99.90
40828;DHT22;26549;50.918;5.338;2023-09-19T03:45:31;16.60;99.90
40828;DHT22;26549;50.918;5.338;2023-09-19T03:47:57;16.60;99.90
40828;DHT22;26549;50.918;5.338;2023-09-19T03:50:23;16.60;99.90
40828;DHT22;26549;50.918;5.338;2023-09-19T03:52:49;16.50;99.90
40828;DHT22;26549;50.918;5.338;2023-09-19T03:55:16;16.50;99.90
40828;DHT22;26549;50.918;5.338;2023-09-19T03:57:47;16.60;99.90
40828;DHT22;26549;50.918;5.338;2023-09-19T04:00:16;16.60;99.90
40828;DHT22;26549;50.918;5.338;2023-09-19T04:02:46;16.60;99.90
40828;DHT22;26549;50.918;5.338;2023-09-19T04:05:12;16.60;99.90
40828;DHT22;26549;50.918;5.338;2023-09-19T04:07:38;16.60;99.90
40828;DHT22;26549;50.918;5.338;2023-09-19T04:10:05;16.60;99.90
40828;DHT22;26549;50.918;5.338;2023-09-19T04:12:33;16.60;99.90
40828;DHT22;26549;50.918;5.338;2023-09-19T04:14:59;16.60;99.90
40828;DHT22;26549;50.918;5.338;2023-09-19T04:17:27;16.60;99.90
40828;DHT22;26549;50.918;5.338;2023-09-19T04:19:55;16.60;99.90
40828;DHT22;26549;50.918;5.338;2023-09-19T04:22:21;16.70;99.90
40828;DHT22;26549;50.918;5.338;2023-09-19T04:24:49;16.70;99.90
40828;DHT22;26549;50.918;5.338;2023-09-19T04:27:15;16.60;99.90
40828;DHT22;26549;50.918;5.338;2023-09-19T04:29:43;16.60;99.90
40828;DHT22;26549;50.918;5.338;2023-09-19T04:32:10;16.60;99.90
40828;DHT22;26549;50.918;5.338;2023-09-19T04:34:36;16.80;99.90
40828;DHT22;26549;50.918;5.338;2023-09-19T04:37:04;16.70;99.90
40828;DHT22;26549;50.918;5.338;2023-09-19T04:39:30;16.60;99.90
40828;DHT22;26549;50.918;5.338;2023-09-19T04:41:59;16.70;99.90
40828;DHT22;26549;50.918;5.338;2023-09-19T04:44:28;16.70;99.90
40828;DHT22;26549;50.918;5.338;2023-09-19T04:46:56;16.70;99.90
40828;DHT22;26549;50.918;5.338;2023-09-19T04:49:26;16.70;99.90
40828;DHT22;26549;50.918;5.338;2023-09-19T04:51:54;16.70;99.90
40828;DHT22;26549;50.918;5.338;2023-09-19T04:54:24;16.60;99.90
40828;DHT22;26549;50.918;5.338;2023-09-19T04:56:54;16.60;99.90
40828;DHT22;26549;50.918;5.338;2023-09-19T04:59:22;16.60;99.90
40828;DHT22;26549;50.918;5.338;2023-09-19T05:01:48;16.50;99.90
40828;DHT22;26549;50.918;5.338;2023-09-19T05:04:16;16.50;99.90
40828;DHT22;26549;50.918;5.338;2023-09-19T05:06:42;16.60;99.90
40828;DHT22;26549;50.918;5.338;2023-09-19T05:09:07;16.40;99.90
40828;DHT22;26549;50.918;5.338;2023-09-19T05:11:37;16.50;99.90
40828;DHT22;26549;50.918;5.338;2023-09-19T05:14:07;16.50;99.90
40828;DHT22;26549;50.918;5.338;2023-09-19T05:16:35;16.40;99.90
40828;DHT22;26549;50.918;5.338;2023-09-19T05:19:04;16.40;99.90
40828;DHT22;26549;50.918;5.338;2023-09-19T05:21:31;16.30;99.90
40828;DHT22;26549;50.918;5.338;2023-09-19T05:23:58;16.40;99.90
40828;DHT22;26549;50.918;5.338;2023-09-19T05:26:27;16.50;99.90
40828;DHT22;26549;50.918;5.338;2023-09-19T05:28:53;16.50;99.90
40828;DHT22;26549;50.918;5.338;2023-09-19T05:31:20;16.30;99.90
40828;DHT22;26549;50.918;5.338;2023-09-19T05:33:46;16.30;99.90
40828;DHT22;26549;50.918;5.338;2023-09-19T05:36:14;16.20;99.90
40828;DHT22;26549;50.918;5.338;2023-09-19T05:38:42;16.00;99.90
40828;DHT22;26549;50.918;5.338;2023-09-19T05:41:11;16.10;99.90
40828;DHT22;26549;50.918;5.338;2023-09-19T05:43:42;16.00;99.90
40828;DHT22;26549;50.918;5.338;2023-09-19T05:46:08;16.00;99.90
40828;DHT22;26549;50.918;5.338;2023-09-19T05:48:36;16.00;99.90
40828;DHT22;26549;50.918;5.338;2023-09-19T05:51:05;16.10;99.90
40828;DHT22;26549;50.918;5.338;2023-09-19T05:53:30;16.10;99.90
40828;DHT22;26549;50.918;5.338;2023-09-19T05:55:58;16.20;99.90
40828;DHT22;26549;50.918;5.338;2023-09-19T05:58:26;16.20;99.90
40828;DHT22;26549;50.918;5.338;2023-09-19T06:00:53;16.20;99.90
40828;DHT22;26549;50.918;5.338;2023-09-19T06:03:21;16.30;99.90
40828;DHT22;26549;50.918;5.338;2023-09-19T06:05:47;16.30;99.90
40828;DHT22;26549;50.918;5.338;2023-09-19T06:08:16;16.20;99.90
40828;DHT22;26549;50.918;5.338;2023-09-19T06:10:42;16.20;99.90
40828;DHT22;26549;50.918;5.338;2023-09-19T06:13:08;16.20;99.90
40828;DHT22;26549;50.918;5.338;2023-09-19T06:15:37;16.30;99.90
40828;DHT22;26549;50.918;5.338;2023-09-19T06:18:03;16.30;99.90
40828;DHT22;26549;50.918;5.338;2023-09-19T06:20:30;16.30;99.90
40828;DHT22;26549;50.918;5.338;2023-09-19T06:22:57;16.30;99.90
40828;DHT22;26549;50.918;5.338;2023-09-19T06:25:23;16.40;99.90
40828;DHT22;26549;50.918;5.338;2023-09-19T06:27:52;16.50;99.90
40828;DHT22;26549;50.918;5.338;2023-09-19T06:30:31;16.60;99.90
40828;DHT22;26549;50.918;5.338;2023-09-19T06:32:58;16.60;99.90
40828;DHT22;26549;50.918;5.338;2023-09-19T06:35:35;16.70;99.90
40828;DHT22;26549;50.918;5.338;2023-09-19T06:38:07;16.60;99.90
40828;DHT22;26549;50.918;5.338;2023-09-19T06:40:41;16.70;99.90
40828;DHT22;26549;50.918;5.338;2023-09-19T06:43:10;16.70;99.90
40828;DHT22;26549;50.918;5.338;2023-09-19T06:45:45;16.80;99.90
40828;DHT22;26549;50.918;5.338;2023-09-19T06:48:23;16.80;99.90
40828;DHT22;26549;50.918;5.338;2023-09-19T06:51:05;16.90;99.90
40828;DHT22;26549;50.918;5.338;2023-09-19T06:53:38;16.80;99.90
40828;DHT22;26549;50.918;5.338;2023-09-19T06:56:09;17.00;99.90
40828;DHT22;26549;50.918;5.338;2023-09-19T06:58:53;17.00;99.90
40828;DHT22;26549;50.918;5.338;2023-09-19T07:02:05;17.10;99.90
40828;DHT22;26549;50.918;5.338;2023-09-19T07:04:34;17.10;99.90
40828;DHT22;26549;50.918;5.338;2023-09-19T07:07:00;17.10;99.90
40828;DHT22;26549;50.918;5.338;2023-09-19T07:09:30;17.20;99.90
40828;DHT22;26549;50.918;5.338;2023-09-19T07:11:57;17.10;99.90
40828;DHT22;26549;50.918;5.338;2023-09-19T07:14:25;17.20;99.90
40828;DHT22;26549;50.918;5.338;2023-09-19T07:16:56;17.30;99.90
40828;DHT22;26549;50.918;5.338;2023-09-19T07:19:24;17.20;99.90
40828;DHT22;26549;50.918;5.338;2023-09-19T07:21:53;17.30;99.90
40828;DHT22;26549;50.918;5.338;2023-09-19T07:24:20;17.40;99.90
40828;DHT22;26549;50.918;5.338;2023-09-19T07:26:49;17.40;99.90
40828;DHT22;26549;50.918;5.338;2023-09-19T07:29:17;17.30;99.90
40828;DHT22;26549;50.918;5.338;2023-09-19T07:31:45;17.30;99.90
40828;DHT22;26549;50.918;5.338;2023-09-19T07:34:13;17.40;99.90
40828;DHT22;26549;50.918;5.338;2023-09-19T07:36:39;17.40;99.90
40828;DHT22;26549;50.918;5.338;2023-09-19T07:39:07;17.50;99.90
40828;DHT22;26549;50.918;5.338;2023-09-19T07:41:40;17.50;99.90
40828;DHT22;26549;50.918;5.338;2023-09-19T07:44:09;17.60;99.90
40828;DHT22;26549;50.918;5.338;2023-09-19T07:46:36;17.70;99.90
40828;DHT22;26549;50.918;5.338;2023-09-19T07:49:02;17.50;99.90
40828;DHT22;26549;50.918;5.338;2023-09-19T07:51:28;17.70;99.90
40828;DHT22;26549;50.918;5.338;2023-09-19T07:53:54;17.60;99.90
40828;DHT22;26549;50.918;5.338;2023-09-19T07:56:23;17.60;99.90
40828;DHT22;26549;50.918;5.338;2023-09-19T07:58:51;17.60;99.90
40828;DHT22;26549;50.918;5.338;2023-09-19T08:01:17;17.70;99.90
40828;DHT22;26549;50.918;5.338;2023-09-19T08:03:43;17.80;99.90
40828;DHT22;26549;50.918;5.338;2023-09-19T08:06:11;17.80;99.90
40828;DHT22;26549;50.918;5.338;2023-09-19T08:08:37;18.00;99.90
40828;DHT22;26549;50.918;5.338;2023-09-19T08:11:06;17.90;99.90
40828;DHT22;26549;50.918;5.338;2023-09-19T08:13:39;17.90;99.90
40828;DHT22;26549;50.918;5.338;2023-09-19T08:16:15;18.10;99.90
40828;DHT22;26549;50.918;5.338;2023-09-19T08:18:41;18.10;99.90
40828;DHT22;26549;50.918;5.338;2023-09-19T08:21:08;18.10;99.90
40828;DHT22;26549;50.918;5.338;2023-09-19T08:23:39;18.20;99.90
40828;DHT22;26549;50.918;5.338;2023-09-19T08:26:09;18.20;99.90
40828;DHT22;26549;50.918;5.338;2023-09-19T08:28:35;18.20;99.90
40828;DHT22;26549;50.918;5.338;2023-09-19T08:31:03;18.20;99.90
40828;DHT22;26549;50.918;5.338;2023-09-19T08:33:33;18.30;99.90
40828;DHT22;26549;50.918;5.338;2023-09-19T08:36:00;18.20;99.90
40828;DHT22;26549;50.918;5.338;2023-09-19T08:38:26;18.30;99.90
40828;DHT22;26549;50.918;5.338;2023-09-19T08:41:00;18.50;99.90
40828;DHT22;26549;50.918;5.338;2023-09-19T08:43:26;18.50;99.90
40828;DHT22;26549;50.918;5.338;2023-09-19T08:46:15;18.60;99.90
40828;DHT22;26549;50.918;5.338;2023-09-19T08:48:49;18.50;99.90
40828;DHT22;26549;50.918;5.338;2023-09-19T08:51:24;18.50;99.90
40828;DHT22;26549;50.918;5.338;2023-09-19T08:56:30;18.50;99.90
40828;DHT22;26549;50.918;5.338;2023-09-19T08:59:02;18.60;99.90
40828;DHT22;26549;50.918;5.338;2023-09-19T09:01:29;18.60;99.90
40828;DHT22;26549;50.918;5.338;2023-09-19T09:03:58;18.50;99.90
40828;DHT22;26549;50.918;5.338;2023-09-19T09:06:25;18.60;99.90
40828;DHT22;26549;50.918;5.338;2023-09-19T09:08:54;18.70;99.90
40828;DHT22;26549;50.918;5.338;2023-09-19T09:11:20;18.80;99.90
40828;DHT22;26549;50.918;5.338;2023-09-19T09:13:48;18.80;99.90
40828;DHT22;26549;50.918;5.338;2023-09-19T09:16:17;18.90;99.90
40828;DHT22;26549;50.918;5.338;2023-09-19T09:18:46;18.90;99.90
40828;DHT22;26549;50.918;5.338;2023-09-19T09:21:12;19.00;99.90
40828;DHT22;26549;50.918;5.338;2023-09-19T09:23:41;18.90;99.90
40828;DHT22;26549;50.918;5.338;2023-09-19T09:26:07;18.90;99.90
40828;DHT22;26549;50.918;5.338;2023-09-19T09:28:35;19.00;99.90
40828;DHT22;26549;50.918;5.338;2023-09-19T09:31:04;19.10;99.90
40828;DHT22;26549;50.918;5.338;2023-09-19T09:33:36;19.10;99.90
40828;DHT22;26549;50.918;5.338;2023-09-19T09:36:03;19.10;99.90
40828;DHT22;26549;50.918;5.338;2023-09-19T09:38:43;19.20;99.90
40828;DHT22;26549;50.918;5.338;2023-09-19T09:41:10;19.40;99.90
40828;DHT22;26549;50.918;5.338;2023-09-19T09:43:41;19.50;99.90
40828;DHT22;26549;50.918;5.338;2023-09-19T09:46:15;19.60;99.90
40828;DHT22;26549;50.918;5.338;2023-09-19T09:49:05;19.60;99.90
40828;DHT22;26549;50.918;5.338;2023-09-19T09:55:01;19.50;99.90
40828;DHT22;26549;50.918;5.338;2023-09-19T09:57:31;19.60;99.90
40828;DHT22;26549;50.918;5.338;2023-09-19T10:00:01;19.70;99.90
40828;DHT22;26549;50.918;5.338;2023-09-19T10:02:36;19.60;99.90
40828;DHT22;26549;50.918;5.338;2023-09-19T10:05:32;19.50;99.90
40828;DHT22;26549;50.918;5.338;2023-09-19T10:08:12;19.50;99.90
40828;DHT22;26549;50.918;5.338;2023-09-19T10:10:39;19.60;99.90
40828;DHT22;26549;50.918;5.338;2023-09-19T10:13:09;19.80;99.90
40828;DHT22;26549;50.918;5.338;2023-09-19T10:15:38;19.90;99.90
40828;DHT22;26549;50.918;5.338;2023-09-19T10:18:07;19.80;99.90
40828;DHT22;26549;50.918;5.338;2023-09-19T10:20:45;19.90;99.90
40828;DHT22;26549;50.918;5.338;2023-09-19T10:23:12;20.00;99.90
40828;DHT22;26549;50.918;5.338;2023-09-19T10:25:41;19.90;99.90
40828;DHT22;26549;50.918;5.338;2023-09-19T10:28:09;19.80;99.90
40828;DHT22;26549;50.918;5.338;2023-09-19T10:30:42;19.90;99.90
40828;DHT22;26549;50.918;5.338;2023-09-19T10:33:12;19.90;99.90
40828;DHT22;26549;50.918;5.338;2023-09-19T10:35:46;19.80;99.90
40828;DHT22;26549;50.918;5.338;2023-09-19T10:38:14;19.90;99.90
40828;DHT22;26549;50.918;5.338;2023-09-19T10:40:40;19.80;99.90
40828;DHT22;26549;50.918;5.338;2023-09-19T10:43:15;19.90;99.90
40828;DHT22;26549;50.918;5.338;2023-09-19T10:45:45;19.90;99.90
40828;DHT22;26549;50.918;5.338;2023-09-19T10:48:15;19.90;99.90
40828;DHT22;26549;50.918;5.338;2023-09-19T10:51:14;19.90;99.90
40828;DHT22;26549;50.918;5.338;2023-09-19T10:53:56;19.90;99.90
40828;DHT22;26549;50.918;5.338;2023-09-19T10:56:39;20.10;99.90
40828;DHT22;26549;50.918;5.338;2023-09-19T10:59:10;20.10;99.90
40828;DHT22;26549;50.918;5.338;2023-09-19T11:01:46;20.20;99.90
40828;DHT22;26549;50.918;5.338;2023-09-19T11:04:35;20.30;99.90
40828;DHT22;26549;50.918;5.338;2023-09-19T11:09:53;20.40;99.90
40828;DHT22;26549;50.918;5.338;2023-09-19T11:14:58;20.60;99.90
40828;DHT22;26549;50.918;5.338;2023-09-19T11:17:37;20.60;99.90
40828;DHT22;26549;50.918;5.338;2023-09-19T11:30:47;20.90;99.90
40828;DHT22;26549;50.918;5.338;2023-09-19T11:36:05;21.00;99.90
40828;DHT22;26549;50.918;5.338;2023-09-19T11:46:54;20.90;99.90
40828;DHT22;26549;50.918;5.338;2023-09-19T11:49:30;20.90;99.90
40828;DHT22;26549;50.918;5.338;2023-09-19T11:51:58;20.90;99.90
40828;DHT22;26549;50.918;5.338;2023-09-19T11:54:27;20.90;99.90
40828;DHT22;26549;50.918;5.338;2023-09-19T11:56:58;20.90;99.90
40828;DHT22;26549;50.918;5.338;2023-09-19T11:59:31;20.90;99.90
40828;DHT22;26549;50.918;5.338;2023-09-19T12:02:03;21.10;99.90
40828;DHT22;26549;50.918;5.338;2023-09-19T12:04:36;21.20;99.90
40828;DHT22;26549;50.918;5.338;2023-09-19T12:07:14;21.40;99.90
40828;DHT22;26549;50.918;5.338;2023-09-19T12:10:03;21.30;99.90
40828;DHT22;26549;50.918;5.338;2023-09-19T12:12:30;21.30;99.90
40828;DHT22;26549;50.918;5.338;2023-09-19T12:14:58;21.20;99.90
40828;DHT22;26549;50.918;5.338;2023-09-19T12:17:38;21.10;99.90
40828;DHT22;26549;50.918;5.338;2023-09-19T12:20:05;21.30;99.90
40828;DHT22;26549;50.918;5.338;2023-09-19T12:22:41;21.30;99.90
40828;DHT22;26549;50.918;5.338;2023-09-19T12:25:09;21.30;99.90
40828;DHT22;26549;50.918;5.338;2023-09-19T12:27:43;21.40;99.90
40828;DHT22;26549;50.918;5.338;2023-09-19T12:30:10;21.30;99.90
40828;DHT22;26549;50.918;5.338;2023-09-19T12:32:40;21.20;99.90
40828;DHT22;26549;50.918;5.338;2023-09-19T12:35:09;21.30;99.90
40828;DHT22;26549;50.918;5.338;2023-09-19T12:37:47;21.30;99.90
40828;DHT22;26549;50.918;5.338;2023-09-19T12:40:21;21.30;99.90
40828;DHT22;26549;50.918;5.338;2023-09-19T12:42:54;21.20;99.90
40828;DHT22;26549;50.918;5.338;2023-09-19T12:45:29;21.30;99.90
40828;DHT22;26549;50.918;5.338;2023-09-19T12:48:25;21.20;99.90
40828;DHT22;26549;50.918;5.338;2023-09-19T12:51:08;21.40;99.90
40828;DHT22;26549;50.918;5.338;2023-09-19T12:53:43;21.30;99.90
40828;DHT22;26549;50.918;5.338;2023-09-19T12:56:11;21.30;99.90
40828;DHT22;26549;50.918;5.338;2023-09-19T12:58:59;21.00;99.90
40828;DHT22;26549;50.918;5.338;2023-09-19T13:01:28;21.00;99.90
40828;DHT22;26549;50.918;5.338;2023-09-19T13:04:14;20.90;99.90
40828;DHT22;26549;50.918;5.338;2023-09-19T13:06:44;20.90;99.90
40828;DHT22;26549;50.918;5.338;2023-09-19T13:09:10;20.90;99.90
40828;DHT22;26549;50.918;5.338;2023-09-19T13:11:37;21.00;99.90
40828;DHT22;26549;50.918;5.338;2023-09-19T13:19:45;21.10;99.90
40828;DHT22;26549;50.918;5.338;2023-09-19T13:22:39;21.10;99.90
40828;DHT22;26549;50.918;5.338;2023-09-19T13:25:12;21.00;99.90
40828;DHT22;26549;50.918;5.338;2023-09-19T13:27:48;21.00;99.90
40828;DHT22;26549;50.918;5.338;2023-09-19T13:30:17;20.90;99.90
40828;DHT22;26549;50.918;5.338;2023-09-19T13:32:43;21.00;99.90
40828;DHT22;26549;50.918;5.338;2023-09-19T13:35:09;21.00;99.90
40828;DHT22;26549;50.918;5.338;2023-09-19T13:37:38;21.10;99.90
40828;DHT22;26549;50.918;5.338;2023-09-19T13:40:11;21.10;99.90
40828;DHT22;26549;50.918;5.338;2023-09-19T13:42:37;21.20;99.90
40828;DHT22;26549;50.918;5.338;2023-09-19T13:45:04;21.00;99.90
40828;DHT22;26549;50.918;5.338;2023-09-19T13:47:30;21.00;99.90
40828;DHT22;26549;50.918;5.338;2023-09-19T13:49:56;21.10;99.90
40828;DHT22;26549;50.918;5.338;2023-09-19T13:52:22;21.10;99.90
40828;DHT22;26549;50.918;5.338;2023-09-19T13:54:51;21.20;99.90
40828;DHT22;26549;50.918;5.338;2023-09-19T13:57:18;21.20;99.90
40828;DHT22;26549;50.918;5.338;2023-09-19T13:59:44;21.30;99.90
40828;DHT22;26549;50.918;5.338;2023-09-19T14:02:10;21.30;99.90
40828;DHT22;26549;50.918;5.338;2023-09-19T14:04:35;21.40;99.90
40828;DHT22;26549;50.918;5.338;2023-09-19T14:07:02;21.30;99.90
40828;DHT22;26549;50.918;5.338;2023-09-19T14:09:29;21.30;99.90
40828;DHT22;26549;50.918;5.338;2023-09-19T14:11:54;21.20;99.90
40828;DHT22;26549;50.918;5.338;2023-09-19T14:14:20;21.10;99.90
40828;DHT22;26549;50.918;5.338;2023-09-19T14:16:47;21.00;99.90
40828;DHT22;26549;50.918;5.338;2023-09-19T14:19:13;21.00;99.90
40828;DHT22;26549;50.918;5.338;2023-09-19T14:21:42;20.90;99.90
40828;DHT22;26549;50.918;5.338;2023-09-19T14:24:09;20.90;99.90
40828;DHT22;26549;50.918;5.338;2023-09-19T14:26:36;21.00;99.90
40828;DHT22;26549;50.918;5.338;2023-09-19T14:29:02;20.90;99.90
40828;DHT22;26549;50.918;5.338;2023-09-19T14:31:28;21.00;99.90
40828;DHT22;26549;50.918;5.338;2023-09-19T14:33:57;20.80;99.90
40828;DHT22;26549;50.918;5.338;2023-09-19T14:36:25;20.80;99.90
40828;DHT22;26549;50.918;5.338;2023-09-19T14:38:55;20.80;99.90
40828;DHT22;26549;50.918;5.338;2023-09-19T14:41:21;20.70;99.90
40828;DHT22;26549;50.918;5.338;2023-09-19T14:43:48;20.70;99.90
40828;DHT22;26549;50.918;5.338;2023-09-19T14:46:14;20.80;99.90
40828;DHT22;26549;50.918;5.338;2023-09-19T14:48:41;20.90;99.90
40828;DHT22;26549;50.918;5.338;2023-09-19T14:51:08;21.00;99.90
40828;DHT22;26549;50.918;5.338;2023-09-19T14:53:35;21.10;99.90
40828;DHT22;26549;50.918;5.338;2023-09-19T14:56:04;21.20;99.90
40828;DHT22;26549;50.918;5.338;2023-09-19T14:58:33;21.20;99.90
40828;DHT22;26549;50.918;5.338;2023-09-19T15:01:10;21.10;99.90
40828;DHT22;26549;50.918;5.338;2023-09-19T15:03:38;21.10;99.90
40828;DHT22;26549;50.918;5.338;2023-09-19T15:06:06;21.00;99.90
40828;DHT22;26549;50.918;5.338;2023-09-19T15:08:33;21.00;99.90
40828;DHT22;26549;50.918;5.338;2023-09-19T15:11:04;20.90;99.90
40828;DHT22;26549;50.918;5.338;2023-09-19T15:13:31;20.90;99.90
40828;DHT22;26549;50.918;5.338;2023-09-19T15:16:05;20.80;99.90
40828;DHT22;26549;50.918;5.338;2023-09-19T15:18:35;20.90;99.90
40828;DHT22;26549;50.918;5.338;2023-09-19T15:21:10;20.90;99.90
40828;DHT22;26549;50.918;5.338;2023-09-19T15:23:37;20.90;99.90
40828;DHT22;26549;50.918;5.338;2023-09-19T15:26:04;21.00;99.90
40828;DHT22;26549;50.918;5.338;2023-09-19T15:28:30;21.10;99.90
40828;DHT22;26549;50.918;5.338;2023-09-19T15:30:59;21.10;99.90
40828;DHT22;26549;50.918;5.338;2023-09-19T15:33:25;21.10;99.90
40828;DHT22;26549;50.918;5.338;2023-09-19T15:36:15;21.00;99.90
40828;DHT22;26549;50.918;5.338;2023-09-19T15:41:22;21.00;99.90
40828;DHT22;26549;50.918;5.338;2023-09-19T15:43:48;21.00;99.90
40828;DHT22;26549;50.918;5.338;2023-09-19T15:46:13;21.00;99.90
40828;DHT22;26549;50.918;5.338;2023-09-19T15:48:41;20.90;99.90
40828;DHT22;26549;50.918;5.338;2023-09-19T15:51:07;20.90;99.90
40828;DHT22;26549;50.918;5.338;2023-09-19T15:53:43;20.90;99.90
40828;DHT22;26549;50.918;5.338;2023-09-19T15:56:12;20.80;99.90
40828;DHT22;26549;50.918;5.338;2023-09-19T15:58:40;20.70;99.90
40828;DHT22;26549;50.918;5.338;2023-09-19T16:01:07;20.70;99.90
40828;DHT22;26549;50.918;5.338;2023-09-19T16:03:36;20.60;99.90
40828;DHT22;26549;50.918;5.338;2023-09-19T16:06:08;20.70;99.90
40828;DHT22;26549;50.918;5.338;2023-09-19T16:08:35;20.70;99.90
40828;DHT22;26549;50.918;5.338;2023-09-19T16:11:03;20.60;99.90
40828;DHT22;26549;50.918;5.338;2023-09-19T16:13:30;20.50;99.90
40828;DHT22;26549;50.918;5.338;2023-09-19T16:15:59;20.50;99.90
40828;DHT22;26549;50.918;5.338;2023-09-19T16:18:27;20.60;99.90
40828;DHT22;26549;50.918;5.338;2023-09-19T16:21:01;20.40;99.90
40828;DHT22;26549;50.918;5.338;2023-09-19T16:23:30;20.40;99.90
40828;DHT22;26549;50.918;5.338;2023-09-19T16:26:02;20.50;99.90
40828;DHT22;26549;50.918;5.338;2023-09-19T16:28:30;20.40;99.90
40828;DHT22;26549;50.918;5.338;2023-09-19T16:31:01;20.40;99.90
40828;DHT22;26549;50.918;5.338;2023-09-19T16:33:34;20.30;99.90
40828;DHT22;26549;50.918;5.338;2023-09-19T16:36:00;20.30;99.90
40828;DHT22;26549;50.918;5.338;2023-09-19T16:38:27;20.30;99.90
40828;DHT22;26549;50.918;5.338;2023-09-19T16:40:57;20.30;99.90
40828;DHT22;26549;50.918;5.338;2023-09-19T16:43:24;20.20;99.90
40828;DHT22;26549;50.918;5.338;2023-09-19T16:46:00;20.30;99.90